Aérodrome :







RETROUVEZ-NOUS SUR...

 
LOGIN :

S'inscrire | Disclaimer

   EN    FR    IT 

 









Légende :    VFR   VFR Marginal   IFR   IFR Intensif   IFR Très Intensif
Visi : 
Plafond : 
>= 8 km
>= 3000ft
5 à 8 km
1000 à 3000 ft
1500m à 5 km
500 à 1000 ft
800 à 1500m
200 à 500 ft
< 800m
< 200 ft
Symboles :   Orages  Brouillard  Fortes neiges  Fortes précipitations  Vent > 20 kt






- Altitude de l'aérodrome : 56 ft
- Code IATA : MCP


SBMQ - Macapa Int.

DERNIER METAR :
  • 291400Z 08010KT 9999 SCT025 33/24 Q1013

METARs EXPIRÉS :
  • 291300Z 09012KT 9999 SCT020 32/25 Q1013
  • 291200Z 04006KT 9999 FEW018 30/25 Q1012

TAF TAF SBMQ
Valide du 29 à 12h jusqu'au 30 à 12h UTC


290830Z 2912/3012 07010KT 9999 SCT020 TX35/2917Z TN26/3009Z
BECMG 2916/2918 06013KT SCT030 FEW035TCU
BECMG 2920/2923 05007KT FEW023
BECMG 3003/3005 02005KT SCT012
BECMG 3009/3011 04010KT SCT020 RMK PHN
FIR SBAZ / Amérique du Sud



MET'MAP, la Météo Aéronautique d'un coup d'oeil ! - Copyright ORBIFLY Décembre 2007 - Disclaimer

ORBIFLY MET'MAP TEAM :

Programmation & Développement : Alexandra Zaïnal
Sur une idée originale de : Baudouin d'Aumeries
Assistance à la programmation : Marc-Olivier Méhu
Soutien technique & logistique : Manuel Goepfert

Contact : metmap@orbifly.com




SOURCES & CREDITS :

   NOAA